createdAt,value
2022-12-12T00:00:59.953Z,15.13
2022-12-12T00:03:39.203Z,16.40
2022-12-12T00:06:14.323Z,14.67
2022-12-12T00:08:49.766Z,16.40
2022-12-12T00:11:26.269Z,16.10
2022-12-12T00:14:01.362Z,16.03
2022-12-12T00:16:36.506Z,15.15
2022-12-12T00:19:11.430Z,14.80
2022-12-12T00:21:46.289Z,17.60
2022-12-12T00:24:21.174Z,15.53
2022-12-12T00:26:56.082Z,16.02
2022-12-12T00:29:30.957Z,13.57
2022-12-12T00:32:05.847Z,16.20
2022-12-12T00:34:40.729Z,14.43
2022-12-12T00:37:15.883Z,15.37
2022-12-12T00:39:50.968Z,14.30
2022-12-12T00:42:27.293Z,15.23
2022-12-12T00:45:02.319Z,14.03
2022-12-12T00:47:37.240Z,15.55
2022-12-12T00:50:12.112Z,14.90
2022-12-12T00:52:47.072Z,13.90
2022-12-12T00:55:22.318Z,14.53
2022-12-12T00:57:57.198Z,14.27
2022-12-12T01:00:34.277Z,14.80
2022-12-12T01:03:09.242Z,13.93
2022-12-12T01:05:44.467Z,13.25
2022-12-12T01:08:19.326Z,15.87
2022-12-12T01:10:54.337Z,14.27
2022-12-12T01:13:29.677Z,13.43
2022-12-12T01:16:06.854Z,15.37
2022-12-12T01:18:42.109Z,14.80
2022-12-12T01:21:20.361Z,14.37
2022-12-12T01:23:55.306Z,14.27
2022-12-12T01:26:30.227Z,14.03
2022-12-12T01:29:05.107Z,13.57
2022-12-12T01:31:39.999Z,14.47
2022-12-12T01:34:14.985Z,15.10
2022-12-12T01:36:49.872Z,13.80
2022-12-12T01:39:24.838Z,13.37
2022-12-12T01:41:59.763Z,12.53
2022-12-12T01:44:49.576Z,12.37
2022-12-12T01:47:25.847Z,11.60
2022-12-12T01:50:10.273Z,10.37
2022-12-12T01:52:48.431Z,11.50
2022-12-12T01:55:23.909Z,10.57
2022-12-12T01:57:58.839Z,11.25
2022-12-12T02:00:35.032Z,11.00
2022-12-12T02:03:10.159Z,10.30
2022-12-12T02:06:00.091Z,12.90
2022-12-12T02:08:35.807Z,11.50
2022-12-12T02:11:10.739Z,11.63
2022-12-12T02:13:45.850Z,11.77
2022-12-12T02:16:29.557Z,12.70
2022-12-12T02:19:14.510Z,12.70
2022-12-12T02:22:38.543Z,11.70
2022-12-12T02:25:46.905Z,11.55
2022-12-12T02:28:46.661Z,12.33
2022-12-12T02:31:48.979Z,12.02
2022-12-12T02:34:36.336Z,11.27
2022-12-12T02:37:41.510Z,12.48
2022-12-12T02:40:22.936Z,11.00
2022-12-12T02:43:32.098Z,11.50
2022-12-12T02:46:21.633Z,10.50
2022-12-12T02:49:06.784Z,10.50
2022-12-12T02:51:42.548Z,11.23
2022-12-12T02:54:21.470Z,11.75
2022-12-12T02:57:00.319Z,10.93
2022-12-12T02:59:46.439Z,11.35
2022-12-12T03:03:26.088Z,9.52
2022-12-12T03:06:39.360Z,12.60
2022-12-12T03:10:02.414Z,11.35
2022-12-12T03:13:07.585Z,12.73
2022-12-12T03:16:33.376Z,12.10
2022-12-12T03:19:26.789Z,11.52
2022-12-12T03:22:17.727Z,12.60
2022-12-12T03:25:36.725Z,11.45
2022-12-12T03:28:29.603Z,11.85
2022-12-12T03:31:09.514Z,11.93
2022-12-12T03:33:53.975Z,11.43
2022-12-12T03:36:40.944Z,11.75
2022-12-12T03:39:26.371Z,11.43
2022-12-12T03:42:11.309Z,10.68
2022-12-12T03:44:54.664Z,11.60
2022-12-12T03:47:43.483Z,11.65
2022-12-12T03:50:25.265Z,10.52
2022-12-12T03:53:39.069Z,10.93
2022-12-12T03:56:31.980Z,11.18
2022-12-12T03:59:27.699Z,10.85
2022-12-12T04:02:27.917Z,12.15
2022-12-12T04:05:15.033Z,11.25
2022-12-12T04:08:04.619Z,9.55
2022-12-12T04:11:05.591Z,10.98
2022-12-12T04:13:49.728Z,11.57
2022-12-12T04:16:33.779Z,11.25
2022-12-12T04:19:39.737Z,11.23
2022-12-12T04:22:39.155Z,11.27
2022-12-12T04:25:57.282Z,11.13
2022-12-12T04:28:33.993Z,11.88
2022-12-12T04:31:11.809Z,13.23
2022-12-12T04:33:51.167Z,11.88
2022-12-12T04:36:27.003Z,12.30
2022-12-12T04:39:03.813Z,13.20
2022-12-12T04:41:41.619Z,12.70
2022-12-12T04:44:19.956Z,11.48
2022-12-12T04:46:57.384Z,11.15
2022-12-12T04:49:34.611Z,11.85
2022-12-12T04:52:13.919Z,11.45
2022-12-12T04:54:58.018Z,12.18
2022-12-12T04:57:39.775Z,10.75
2022-12-12T05:00:16.094Z,12.27
2022-12-12T05:03:06.636Z,12.45
2022-12-12T05:05:59.619Z,11.90
2022-12-12T05:08:50.825Z,11.93
2022-12-12T05:11:25.837Z,14.05
2022-12-12T05:14:01.004Z,13.98
2022-12-12T05:16:43.842Z,14.80
2022-12-12T05:19:18.737Z,14.60
2022-12-12T05:21:53.568Z,14.52
2022-12-12T05:24:31.151Z,14.98
2022-12-12T05:27:06.049Z,15.98
2022-12-12T05:29:40.972Z,14.90
2022-12-12T05:32:15.952Z,14.40
2022-12-12T05:34:50.777Z,15.15
2022-12-12T05:37:25.927Z,14.90
2022-12-12T05:40:01.057Z,12.65
2022-12-12T05:42:35.946Z,15.07
2022-12-12T05:45:13.063Z,13.77
2022-12-12T05:47:48.596Z,14.73
2022-12-12T05:50:23.479Z,14.32
2022-12-12T05:52:58.454Z,16.15
2022-12-12T05:55:33.300Z,15.65
2022-12-12T05:58:08.234Z,15.48
2022-12-12T06:00:43.283Z,15.77
2022-12-12T06:03:19.100Z,15.82
2022-12-12T06:05:53.976Z,15.60
2022-12-12T06:08:29.238Z,15.00
2022-12-12T06:11:08.150Z,14.18
2022-12-12T06:13:43.256Z,15.10
2022-12-12T06:16:19.958Z,16.33
2022-12-12T06:18:56.201Z,16.30
2022-12-12T06:21:31.260Z,16.40
2022-12-12T06:24:07.215Z,16.40
2022-12-12T06:26:42.271Z,16.90
2022-12-12T06:29:17.345Z,16.88
2022-12-12T06:31:52.258Z,17.38
2022-12-12T06:34:27.325Z,17.80
2022-12-12T06:37:02.262Z,16.65
2022-12-12T06:39:37.914Z,17.95
2022-12-12T06:42:12.966Z,17.08
2022-12-12T06:44:47.925Z,18.35
2022-12-12T06:47:22.844Z,15.27
2022-12-12T06:49:57.730Z,17.40
2022-12-12T06:52:32.624Z,17.25
2022-12-12T06:55:08.335Z,16.23
2022-12-12T06:57:43.329Z,17.50
2022-12-12T07:00:18.963Z,17.05
2022-12-12T07:02:53.933Z,16.50
2022-12-12T07:05:28.827Z,16.70
2022-12-12T07:08:04.562Z,16.90
2022-12-12T07:10:39.658Z,17.95
2022-12-12T07:13:14.826Z,16.60
2022-12-12T07:15:50.913Z,16.90
2022-12-12T07:18:26.271Z,17.38
2022-12-12T07:21:05.950Z,17.35
2022-12-12T07:23:41.474Z,16.20
2022-12-12T07:26:20.606Z,16.60
2022-12-12T07:28:55.583Z,16.13
2022-12-12T07:31:30.982Z,17.15
2022-12-12T07:34:05.879Z,17.25
2022-12-12T07:36:40.985Z,17.55
2022-12-12T07:39:20.700Z,17.38
2022-12-12T07:41:56.086Z,18.00
2022-12-12T07:44:31.892Z,17.15
2022-12-12T07:47:06.777Z,17.75
2022-12-12T07:49:41.824Z,17.25
2022-12-12T07:52:16.908Z,17.15
2022-12-12T07:54:51.857Z,17.23
2022-12-12T07:57:27.021Z,17.20
2022-12-12T08:00:02.198Z,17.42
2022-12-12T08:02:47.049Z,17.58
2022-12-12T08:05:22.062Z,17.13
2022-12-12T08:07:57.101Z,16.92
2022-12-12T08:10:32.095Z,17.73
2022-12-12T08:13:07.300Z,16.48
2022-12-12T08:15:43.370Z,18.23
2022-12-12T08:18:18.318Z,16.58
2022-12-12T08:20:53.229Z,18.25
2022-12-12T08:23:28.167Z,17.73
2022-12-12T08:26:06.467Z,17.77
2022-12-12T08:28:44.799Z,17.40
2022-12-12T08:31:21.406Z,17.67
2022-12-12T08:33:57.005Z,18.25
2022-12-12T08:36:34.856Z,18.02
2022-12-12T08:39:16.162Z,16.10
2022-12-12T08:41:51.252Z,18.70
2022-12-12T08:44:26.519Z,16.95
2022-12-12T08:47:01.441Z,16.00
2022-12-12T08:49:36.485Z,17.10
2022-12-12T08:52:11.656Z,15.57
2022-12-12T08:54:46.641Z,17.33
2022-12-12T08:57:25.922Z,17.33
2022-12-12T09:00:01.230Z,16.03
2022-12-12T09:02:36.394Z,16.50
2022-12-12T09:05:11.711Z,15.97
2022-12-12T09:07:46.890Z,16.10
2022-12-12T09:10:21.853Z,17.80
2022-12-12T09:12:57.144Z,16.83
2022-12-12T09:15:34.354Z,17.17
2022-12-12T09:18:09.381Z,16.73
2022-12-12T09:20:52.664Z,16.90
2022-12-12T09:23:28.847Z,17.80
2022-12-12T09:26:08.975Z,16.00
2022-12-12T09:28:44.225Z,16.37
2022-12-12T09:31:19.455Z,15.53
2022-12-12T09:33:54.503Z,15.93
2022-12-12T09:36:29.499Z,17.00
2022-12-12T09:39:04.492Z,16.30
2022-12-12T09:41:39.740Z,15.67
2022-12-12T09:44:19.220Z,16.27
2022-12-12T09:47:06.035Z,15.13
2022-12-12T09:49:51.063Z,15.60
2022-12-12T09:52:36.152Z,16.80
2022-12-12T09:55:46.891Z,15.83
2022-12-12T09:58:34.274Z,15.83
2022-12-12T10:01:45.634Z,15.80
2022-12-12T10:04:39.727Z,14.63
2022-12-12T10:07:23.692Z,15.33
2022-12-12T10:10:24.887Z,15.90
2022-12-12T10:13:03.569Z,15.00
2022-12-12T10:15:44.749Z,17.10
2022-12-12T10:18:31.259Z,15.67
2022-12-12T10:21:19.299Z,14.73
2022-12-12T10:24:12.666Z,14.90
2022-12-12T10:26:47.815Z,15.93
2022-12-12T10:29:26.590Z,15.77
2022-12-12T10:32:37.827Z,16.97
2022-12-12T10:35:27.349Z,16.37
2022-12-12T10:38:35.861Z,17.10
2022-12-12T10:41:22.515Z,16.23
2022-12-12T10:44:21.373Z,15.67
2022-12-12T10:47:08.890Z,15.67
2022-12-12T10:49:43.867Z,15.67
2022-12-12T10:52:22.064Z,15.40
2022-12-12T10:55:01.018Z,16.07
2022-12-12T10:57:36.350Z,14.30
2022-12-12T11:00:28.207Z,16.23
2022-12-12T11:03:35.909Z,16.60
2022-12-12T11:06:18.221Z,14.60
2022-12-12T11:09:01.000Z,15.37
2022-12-12T11:11:36.053Z,14.50
2022-12-12T11:14:29.720Z,14.33
2022-12-12T11:17:34.861Z,15.10
2022-12-12T11:20:18.383Z,13.30
2022-12-12T11:22:56.636Z,12.37
2022-12-12T11:25:33.360Z,11.77
2022-12-12T11:28:22.850Z,11.23
2022-12-12T11:30:58.177Z,10.73
2022-12-12T11:33:43.351Z,12.40
2022-12-12T11:36:27.369Z,11.83
2022-12-12T11:39:15.667Z,13.40
2022-12-12T11:42:14.005Z,18.03
2022-12-12T11:45:02.567Z,14.40
2022-12-12T11:47:46.492Z,15.80
2022-12-12T11:50:28.374Z,15.77
2022-12-12T11:53:06.295Z,15.97
2022-12-12T11:56:12.813Z,15.27
2022-12-12T11:59:18.589Z,17.30
2022-12-12T12:02:25.751Z,17.00
2022-12-12T12:05:48.028Z,15.23
2022-12-12T12:09:04.936Z,16.97
2022-12-12T12:12:17.851Z,17.80
2022-12-12T12:15:05.351Z,17.30
2022-12-12T12:18:10.352Z,17.33
2022-12-12T12:21:24.675Z,15.93
2022-12-12T12:24:19.490Z,15.93
2022-12-12T12:27:30.647Z,17.93
2022-12-12T12:30:21.846Z,17.63
2022-12-12T12:33:31.584Z,17.07
2022-12-12T12:36:24.767Z,16.17
2022-12-12T12:39:20.941Z,16.87
2022-12-12T12:42:26.017Z,18.60
2022-12-12T12:45:18.101Z,16.80
2022-12-12T12:48:10.404Z,16.00
2022-12-12T12:51:34.697Z,16.10
2022-12-12T12:54:48.273Z,16.43
2022-12-12T12:57:39.925Z,17.00
2022-12-12T13:00:26.706Z,17.23
2022-12-12T13:03:20.634Z,19.30
2022-12-12T13:06:02.310Z,16.27
2022-12-12T13:09:04.393Z,17.63
2022-12-12T13:11:44.542Z,15.73
2022-12-12T13:14:38.888Z,16.07
2022-12-12T13:17:23.112Z,15.80
2022-12-12T13:19:58.874Z,16.50
2022-12-12T13:23:24.190Z,16.77
2022-12-12T13:26:51.760Z,15.00
2022-12-12T13:29:35.532Z,15.47
2022-12-12T13:32:36.673Z,15.00
2022-12-12T13:35:24.598Z,14.40
2022-12-12T13:38:00.768Z,16.07
2022-12-12T13:40:42.893Z,16.27
2022-12-12T13:43:46.656Z,17.20
2022-12-12T13:46:42.156Z,15.20
2022-12-12T13:49:45.409Z,15.30
2022-12-12T13:52:42.359Z,15.40
2022-12-12T13:55:22.649Z,15.20
2022-12-12T13:57:57.754Z,16.17
2022-12-12T14:00:39.211Z,16.27
2022-12-12T14:03:14.125Z,15.17
2022-12-12T14:05:52.273Z,15.57
2022-12-12T14:08:35.870Z,14.63
2022-12-12T14:11:29.224Z,15.70
2022-12-12T14:14:19.695Z,14.90
2022-12-12T14:16:56.557Z,14.17
2022-12-12T14:19:37.905Z,15.13
2022-12-12T14:22:38.478Z,15.20
2022-12-12T14:25:18.958Z,16.03
2022-12-12T14:27:54.326Z,14.70
2022-12-12T14:30:44.111Z,14.80
2022-12-12T14:33:54.504Z,16.80
2022-12-12T14:36:42.966Z,15.50
2022-12-12T14:39:47.702Z,16.60
2022-12-12T14:43:21.414Z,16.13
2022-12-12T14:45:37.526Z,15.70
2022-12-12T14:48:28.651Z,16.67
2022-12-12T14:51:29.980Z,16.30
2022-12-12T14:54:17.350Z,16.77
2022-12-12T14:56:55.882Z,16.10
2022-12-12T14:59:42.334Z,16.90
2022-12-12T15:02:48.795Z,16.80
2022-12-12T15:05:23.818Z,14.40
2022-12-12T15:07:59.702Z,16.10
2022-12-12T15:10:35.593Z,15.63
2022-12-12T15:13:21.046Z,15.87
2022-12-12T15:15:56.039Z,17.87
2022-12-12T15:18:32.037Z,15.83
2022-12-12T15:21:06.982Z,15.70
2022-12-12T15:23:42.656Z,15.03
2022-12-12T15:26:21.814Z,17.93
2022-12-12T15:28:57.418Z,15.30
2022-12-12T15:31:33.627Z,15.30
2022-12-12T15:35:00.356Z,16.07
2022-12-12T15:37:37.694Z,14.50
2022-12-12T15:40:17.706Z,15.80
2022-12-12T15:42:56.123Z,14.93
2022-12-12T15:45:33.763Z,14.70
2022-12-12T15:48:18.680Z,16.10
2022-12-12T15:51:02.364Z,14.50
2022-12-12T15:53:41.331Z,16.23
2022-12-12T15:56:25.971Z,15.77
2022-12-12T15:59:09.906Z,14.43
2022-12-12T16:01:45.264Z,15.57
2022-12-12T16:04:23.984Z,16.00
2022-12-12T16:07:21.506Z,16.13
2022-12-12T16:10:11.082Z,14.70
2022-12-12T16:13:26.200Z,15.70
2022-12-12T16:16:01.513Z,14.67
2022-12-12T16:18:41.207Z,15.90
2022-12-12T16:21:17.138Z,16.83
2022-12-12T16:23:52.100Z,15.57
2022-12-12T16:26:26.990Z,14.83
2022-12-12T16:29:03.434Z,15.67
2022-12-12T16:31:38.486Z,15.27
2022-12-12T16:34:13.493Z,14.63
2022-12-12T16:36:48.840Z,16.57
2022-12-12T16:39:23.731Z,15.30
2022-12-12T16:41:58.679Z,16.27
2022-12-12T16:44:33.575Z,15.80
2022-12-12T16:47:16.439Z,15.80
2022-12-12T16:49:51.877Z,15.52
2022-12-12T16:52:26.836Z,16.17
2022-12-12T16:55:01.931Z,15.63
2022-12-12T16:57:36.839Z,14.65
2022-12-12T17:00:13.743Z,15.30
2022-12-12T17:02:49.014Z,13.82
2022-12-12T17:05:27.004Z,15.07
2022-12-12T17:08:02.661Z,16.08
2022-12-12T17:10:37.993Z,13.35
2022-12-12T17:13:24.921Z,15.15
2022-12-12T17:16:00.916Z,15.57
2022-12-12T17:18:36.346Z,14.80
2022-12-12T17:21:11.344Z,15.52
2022-12-12T17:23:46.350Z,15.50
2022-12-12T17:26:21.331Z,15.35
2022-12-12T17:28:56.673Z,15.68
2022-12-12T17:31:31.688Z,16.23
2022-12-12T17:34:07.059Z,16.20
2022-12-12T17:36:42.170Z,14.82
2022-12-12T17:39:17.944Z,15.85
2022-12-12T17:41:52.826Z,15.57
2022-12-12T17:44:27.764Z,15.75
2022-12-12T17:47:03.168Z,15.60
2022-12-12T17:49:38.193Z,14.80
2022-12-12T17:52:13.117Z,13.25
2022-12-12T17:55:55.057Z,14.13
2022-12-12T17:57:42.956Z,16.02
2022-12-12T18:00:18.247Z,14.50
2022-12-12T18:02:53.198Z,12.90
2022-12-12T18:05:28.202Z,13.18
2022-12-12T18:08:03.184Z,12.55
2022-12-12T18:10:38.150Z,13.23
2022-12-12T18:13:13.057Z,13.63
2022-12-12T18:15:58.131Z,13.50
2022-12-12T18:18:33.311Z,14.30
2022-12-12T18:21:23.527Z,14.13
2022-12-12T18:24:08.273Z,14.15
2022-12-12T18:26:44.427Z,14.68
2022-12-12T18:29:19.346Z,14.98
2022-12-12T18:31:54.690Z,15.05
2022-12-12T18:34:29.873Z,14.50
2022-12-12T18:37:04.879Z,14.48
2022-12-12T18:39:39.815Z,14.65
2022-12-12T18:42:14.728Z,13.50
2022-12-12T18:44:51.041Z,14.65
2022-12-12T18:47:26.016Z,13.93
2022-12-12T18:50:00.980Z,14.88
2022-12-12T18:52:35.972Z,15.20
2022-12-12T18:55:10.921Z,14.00
2022-12-12T18:57:45.832Z,15.23
2022-12-12T19:00:21.102Z,15.43
2022-12-12T19:02:56.000Z,15.02
2022-12-12T19:05:30.932Z,16.10
2022-12-12T19:08:05.886Z,15.80
2022-12-12T19:10:41.595Z,14.80
2022-12-12T19:13:16.486Z,15.30
2022-12-12T19:15:51.480Z,14.45
2022-12-12T19:18:26.628Z,14.85
2022-12-12T19:21:09.107Z,15.57
2022-12-12T19:23:45.053Z,13.90
2022-12-12T19:26:27.983Z,15.63
2022-12-12T19:29:13.422Z,14.77
2022-12-12T19:31:52.559Z,15.50
2022-12-12T19:34:30.205Z,15.60
2022-12-12T19:37:05.406Z,14.15
2022-12-12T19:39:40.406Z,14.50
2022-12-12T19:42:15.295Z,15.18
2022-12-12T19:44:50.319Z,14.52
2022-12-12T19:47:25.575Z,13.95
2022-12-12T19:50:00.733Z,13.82
2022-12-12T19:52:35.794Z,14.77
2022-12-12T19:55:10.676Z,14.75
2022-12-12T19:57:45.662Z,14.00
2022-12-12T20:00:20.926Z,14.57
2022-12-12T20:02:55.883Z,15.98
2022-12-12T20:05:30.819Z,16.67
2022-12-12T20:08:05.827Z,14.25
2022-12-12T20:10:40.765Z,15.95
2022-12-12T20:13:15.710Z,14.60
2022-12-12T20:15:50.757Z,15.05
2022-12-12T20:18:25.641Z,15.10
2022-12-12T20:21:03.844Z,15.85
2022-12-12T20:23:45.526Z,14.68
2022-12-12T20:26:28.773Z,17.10
2022-12-12T20:29:04.261Z,17.60
2022-12-12T20:31:45.597Z,14.85
2022-12-12T20:34:22.584Z,14.98
2022-12-12T20:36:58.566Z,15.65
2022-12-12T20:39:35.366Z,15.25
2022-12-12T20:42:11.026Z,15.80
2022-12-12T20:44:45.906Z,15.88
2022-12-12T20:47:22.472Z,14.63
2022-12-12T20:49:57.443Z,15.05
2022-12-12T20:52:33.679Z,15.13
2022-12-12T20:55:09.308Z,14.88
2022-12-12T20:57:44.233Z,16.08
2022-12-12T21:00:19.192Z,15.25
2022-12-12T21:02:54.137Z,15.55
2022-12-12T21:05:30.293Z,16.05
2022-12-12T21:08:05.432Z,15.43
2022-12-12T21:10:40.487Z,14.15
2022-12-12T21:13:15.400Z,14.70
2022-12-12T21:15:50.341Z,14.38
2022-12-12T21:18:25.226Z,15.00
2022-12-12T21:21:00.209Z,14.80
2022-12-12T21:23:35.250Z,15.93
2022-12-12T21:26:19.691Z,15.05
2022-12-12T21:28:58.413Z,15.90
2022-12-12T21:31:46.561Z,14.63
2022-12-12T21:34:25.736Z,15.85
2022-12-12T21:37:00.654Z,15.80
2022-12-12T21:39:35.643Z,14.13
2022-12-12T21:42:10.508Z,14.20
2022-12-12T21:44:45.982Z,14.20
2022-12-12T21:47:21.919Z,16.90
2022-12-12T21:49:56.798Z,13.52
2022-12-12T21:52:31.735Z,14.65
2022-12-12T21:55:07.423Z,15.70
2022-12-12T21:57:42.427Z,14.35
2022-12-12T22:00:17.511Z,13.75
2022-12-12T22:02:52.471Z,14.50
2022-12-12T22:05:27.615Z,14.77
2022-12-12T22:08:02.522Z,13.20
2022-12-12T22:10:38.159Z,14.68
2022-12-12T22:13:13.051Z,13.10
2022-12-12T22:16:00.714Z,16.20
2022-12-12T22:18:36.661Z,14.90
2022-12-12T22:21:15.282Z,15.38
2022-12-12T22:23:52.688Z,14.73
2022-12-12T22:26:34.526Z,13.75
2022-12-12T22:29:16.836Z,14.57
2022-12-12T22:31:52.530Z,15.68
2022-12-12T22:34:27.652Z,16.13
2022-12-12T22:37:02.607Z,14.48
2022-12-12T22:39:37.728Z,15.15
2022-12-12T22:42:12.630Z,14.52
2022-12-12T22:44:48.706Z,14.48
2022-12-12T22:47:24.880Z,13.65
2022-12-12T22:49:59.726Z,15.18
2022-12-12T22:52:34.589Z,15.20
2022-12-12T22:55:09.846Z,15.82
2022-12-12T22:57:46.524Z,14.90
2022-12-12T23:00:21.513Z,14.68
2022-12-12T23:02:56.383Z,15.32
2022-12-12T23:05:31.337Z,15.07
2022-12-12T23:08:06.333Z,13.95
2022-12-12T23:10:41.232Z,15.50
2022-12-12T23:13:16.324Z,14.85
2022-12-12T23:15:51.275Z,15.43
2022-12-12T23:18:26.386Z,15.20
2022-12-12T23:21:01.447Z,15.68
2022-12-12T23:23:36.945Z,15.75
2022-12-12T23:26:17.643Z,13.27
2022-12-12T23:28:53.328Z,14.27
2022-12-12T23:31:31.930Z,14.85
2022-12-12T23:34:15.330Z,15.77
2022-12-12T23:36:54.024Z,13.82
2022-12-12T23:39:29.030Z,15.18
2022-12-12T23:42:03.899Z,14.73
2022-12-12T23:44:38.779Z,14.65
2022-12-12T23:47:13.646Z,14.30
2022-12-12T23:49:48.498Z,15.00
2022-12-12T23:52:23.368Z,14.18
2022-12-12T23:54:58.255Z,14.60
2022-12-12T23:57:33.120Z,16.38
